createdAt,value
2022-11-16T00:00:08.000Z,1003.9
2022-11-16T00:01:24.608Z,1003.9
2022-11-16T00:02:22.860Z,1003.9
2022-11-16T00:03:57.112Z,1003.9
2022-11-16T00:05:13.000Z,1003.9
2022-11-16T00:06:29.614Z,1003.8
2022-11-16T00:07:45.000Z,1003.9
2022-11-16T00:09:02.117Z,1003.9
2022-11-16T00:10:12.000Z,1003.9
2022-11-16T00:11:33.000Z,1003.9
2022-11-16T00:12:49.927Z,1003.9
2022-11-16T00:13:48.179Z,1003.9
2022-11-16T00:15:17.000Z,1003.9
2022-11-16T00:16:38.682Z,1003.8
2022-11-16T00:17:36.933Z,1003.8
2022-11-16T00:19:11.184Z,1003.9
2022-11-16T00:20:27.000Z,1003.8
2022-11-16T00:21:25.687Z,1003.9
2022-11-16T00:22:59.000Z,1003.9
2022-11-16T00:24:16.193Z,1003.8
2022-11-16T00:25:32.000Z,1003.8
2022-11-16T00:26:43.000Z,1003.8
2022-11-16T00:28:04.000Z,1003.8
2022-11-16T00:29:02.255Z,1003.8
2022-11-16T00:30:36.000Z,1003.7
2022-11-16T00:31:52.760Z,1003.8
2022-11-16T00:32:51.011Z,1003.8
2022-11-16T00:34:25.000Z,1003.8
2022-11-16T00:35:36.000Z,1003.8
2022-11-16T00:36:57.765Z,1003.8
2022-11-16T00:38:14.000Z,1003.8
2022-11-16T00:39:30.269Z,1003.8
2022-11-16T00:40:28.520Z,1003.8
2022-11-16T00:42:02.774Z,1003.8
2022-11-16T00:43:19.025Z,1003.9
2022-11-16T00:44:35.000Z,1003.8
2022-11-16T00:45:51.529Z,1003.7
2022-11-16T00:47:07.000Z,1003.8
2022-11-16T00:48:06.032Z,1003.8
2022-11-16T00:49:39.000Z,1003.8
2022-11-16T00:50:55.583Z,1003.8
2022-11-16T00:51:53.834Z,1003.7
2022-11-16T00:53:28.088Z,1003.8
2022-11-16T00:54:44.339Z,1003.7
2022-11-16T00:56:00.763Z,1003.7
2022-11-16T00:57:16.000Z,1003.7
2022-11-16T00:58:33.094Z,1003.8
2022-11-16T00:59:31.345Z,1003.7
2022-11-16T01:01:05.000Z,1003.8
2022-11-16T01:02:21.000Z,1003.8
2022-11-16T01:03:38.100Z,1003.8
2022-11-16T01:04:54.354Z,1003.8
2022-11-16T01:06:10.605Z,1003.8
2022-11-16T01:07:08.857Z,1003.8
2022-11-16T01:08:42.000Z,1003.8
2022-11-16T01:09:58.416Z,1003.8
2022-11-16T01:10:56.667Z,1003.8
2022-11-16T01:12:12.919Z,1003.8
2022-11-16T01:13:47.170Z,1003.8
2022-11-16T01:14:45.421Z,1003.9
2022-11-16T01:16:19.000Z,1003.8
2022-11-16T01:17:35.926Z,1003.8
2022-11-16T01:18:34.178Z,1003.8
2022-11-16T01:20:08.000Z,1003.8
2022-11-16T01:21:24.000Z,1003.8
2022-11-16T01:23:39.187Z,1003.8
2022-11-16T01:25:12.494Z,1003.8
2022-11-16T01:26:28.000Z,1003.9
2022-11-16T01:27:44.996Z,1003.8
2022-11-16T01:28:43.248Z,1003.8
2022-11-16T01:30:17.500Z,1003.8
2022-11-16T01:31:33.753Z,1003.8
2022-11-16T01:32:50.000Z,1003.8
2022-11-16T01:34:06.417Z,1003.8
2022-11-16T01:35:22.509Z,1003.8
2022-11-16T01:36:38.760Z,1003.8
2022-11-16T01:37:37.012Z,1003.8
2022-11-16T01:39:11.265Z,1003.8
2022-11-16T01:40:09.517Z,1003.7
2022-11-16T01:41:42.000Z,1003.7
2022-11-16T01:42:59.000Z,1003.6
2022-11-16T01:44:15.000Z,1003.7
2022-11-16T01:45:31.736Z,1003.6
2022-11-16T01:46:47.000Z,1003.6
2022-11-16T01:48:04.000Z,1003.6
2022-11-16T01:49:02.332Z,1003.5
2022-11-16T01:50:36.000Z,1003.5
2022-11-16T01:51:52.838Z,1003.5
2022-11-16T01:52:51.089Z,1003.5
2022-11-16T01:54:25.342Z,1003.5
2022-11-16T01:55:41.000Z,1003.4
2022-11-16T01:56:57.846Z,1003.5
2022-11-16T01:58:14.099Z,1003.4
2022-11-16T01:59:29.406Z,1003.4
2022-11-16T02:00:45.000Z,1003.4
2022-11-16T02:02:01.910Z,1003.4
2022-11-16T02:03:18.000Z,1003.4
2022-11-16T02:04:34.000Z,1003.4
2022-11-16T02:05:50.665Z,1003.4
2022-11-16T02:07:06.918Z,1003.4
2022-11-16T02:08:05.169Z,1003.3
2022-11-16T02:09:21.421Z,1003.3
2022-11-16T02:10:55.674Z,1003.3
2022-11-16T02:12:11.925Z,1003.4
2022-11-16T02:13:28.177Z,1003.2
2022-11-16T02:14:39.000Z,1003.3
2022-11-16T02:15:41.736Z,1003.2
2022-11-16T02:17:15.988Z,1003.2
2022-11-16T02:18:32.000Z,1003.1
2022-11-16T02:19:48.491Z,1003.1
2022-11-16T02:21:04.000Z,1003.1
2022-11-16T02:22:20.000Z,1003.1
2022-11-16T02:23:36.481Z,1003.2
2022-11-16T02:24:52.566Z,1003.1
2022-11-16T02:26:08.000Z,1003.1
2022-11-16T02:27:07.069Z,1003
2022-11-16T02:28:41.322Z,1003.1
2022-11-16T02:29:57.574Z,1003
2022-11-16T02:30:55.825Z,1002.9
2022-11-16T02:32:12.078Z,1003
2022-11-16T02:33:46.330Z,1002.9
2022-11-16T02:34:44.581Z,1002.9
2022-11-16T02:36:18.000Z,1002.9
2022-11-16T02:37:35.086Z,1002.9
2022-11-16T02:38:51.337Z,1002.8
2022-11-16T02:40:07.000Z,1002.9
2022-11-16T02:41:23.000Z,1002.8
2022-11-16T02:42:40.254Z,1002.9
2022-11-16T02:43:56.345Z,1002.8
2022-11-16T02:45:11.652Z,1002.8
2022-11-16T02:46:09.903Z,1002.8
2022-11-16T02:47:44.156Z,1002.8
2022-11-16T02:49:00.000Z,1002.8
2022-11-16T02:49:58.659Z,1002.7
2022-11-16T02:51:32.911Z,1002.8
2022-11-16T02:52:49.163Z,1002.8
2022-11-16T02:54:05.576Z,1002.8
2022-11-16T02:55:21.667Z,1002.8
2022-11-16T02:56:37.919Z,1002.7
2022-11-16T02:57:54.000Z,1002.8
2022-11-16T02:59:10.000Z,1002.8
2022-11-16T03:00:26.000Z,1002.7
2022-11-16T03:01:24.927Z,1002.8
2022-11-16T03:02:58.227Z,1002.8
2022-11-16T03:04:14.000Z,1002.7
2022-11-16T03:05:12.730Z,1002.8
2022-11-16T03:06:46.000Z,1002.8
2022-11-16T03:08:03.234Z,1002.7
2022-11-16T03:09:01.486Z,1002.9
2022-11-16T03:10:35.738Z,1002.9
2022-11-16T03:11:51.991Z,1002.8
2022-11-16T03:12:50.242Z,1002.8
2022-11-16T03:14:24.494Z,1002.8
2022-11-16T03:15:40.000Z,1002.8
2022-11-16T03:16:57.000Z,1002.8
2022-11-16T03:18:13.000Z,1002.8
2022-11-16T03:19:28.557Z,1002.8
2022-11-16T03:20:26.809Z,1002.8
2022-11-16T03:21:55.000Z,1002.8
2022-11-16T03:23:17.000Z,1002.8
2022-11-16T03:24:15.565Z,1002.9
2022-11-16T03:25:49.000Z,1002.9
2022-11-16T03:27:06.070Z,1002.8
2022-11-16T03:28:04.320Z,1002.9
2022-11-16T03:29:38.000Z,1002.8
2022-11-16T03:30:54.000Z,1002.8
2022-11-16T03:31:53.076Z,1002.7
2022-11-16T03:33:27.329Z,1002.7
2022-11-16T03:34:25.581Z,1002.7
2022-11-16T03:35:58.888Z,1002.7
2022-11-16T03:37:15.139Z,1002.7
2022-11-16T03:38:13.392Z,1002.8
2022-11-16T03:39:47.816Z,1002.8
2022-11-16T03:41:03.000Z,1002.7
2022-11-16T03:42:20.000Z,1002.7
2022-11-16T03:43:36.000Z,1002.7
2022-11-16T03:44:52.000Z,1002.8
2022-11-16T03:46:08.000Z,1002.7
2022-11-16T03:47:07.154Z,1002.8
2022-11-16T03:48:41.407Z,1002.7
2022-11-16T03:49:57.659Z,1002.6
2022-11-16T03:50:55.910Z,1002.7
2022-11-16T03:52:30.000Z,1002.7
2022-11-16T03:53:46.000Z,1002.7
2022-11-16T03:55:02.666Z,1002.8
2022-11-16T03:56:18.000Z,1002.8
2022-11-16T03:57:35.170Z,1002.8
2022-11-16T03:58:33.421Z,1002.7
2022-11-16T04:00:06.722Z,1002.7
2022-11-16T04:01:22.000Z,1002.7
2022-11-16T04:02:39.000Z,1002.7
2022-11-16T04:03:55.000Z,1002.6
2022-11-16T04:05:11.000Z,1002.6
2022-11-16T04:06:27.980Z,1002.5
2022-11-16T04:07:44.232Z,1002.6
2022-11-16T04:09:00.000Z,1002.5
2022-11-16T04:09:58.736Z,1002.5
2022-11-16T04:11:32.988Z,1002.5
2022-11-16T04:12:49.240Z,1002.5
2022-11-16T04:14:05.492Z,1002.5
2022-11-16T04:15:03.745Z,1002.5
2022-11-16T04:16:37.997Z,1002.5
2022-11-16T04:17:54.423Z,1002.5
2022-11-16T04:19:05.000Z,1002.5
2022-11-16T04:20:26.000Z,1002.4
2022-11-16T04:21:24.060Z,1002.4
2022-11-16T04:22:58.312Z,1002.4
2022-11-16T04:24:09.000Z,1002.4
2022-11-16T04:25:12.816Z,1002.5
2022-11-16T04:26:47.000Z,1002.4
2022-11-16T04:28:03.000Z,1002.5
2022-11-16T04:29:19.000Z,1002.4
2022-11-16T04:30:30.000Z,1002.4
2022-11-16T04:31:52.000Z,1002.4
2022-11-16T04:33:08.328Z,1002.4
2022-11-16T04:34:24.580Z,1002.5
2022-11-16T04:35:40.000Z,1002.4
2022-11-16T04:36:57.000Z,1002.5
2022-11-16T04:38:13.337Z,1002.3
2022-11-16T04:39:28.645Z,1002.3
2022-11-16T04:40:26.896Z,1002.3
2022-11-16T04:42:01.148Z,1002.5
2022-11-16T04:43:17.000Z,1002.3
2022-11-16T04:44:15.651Z,1002.3
2022-11-16T04:45:49.904Z,1002.2
2022-11-16T04:47:06.000Z,1002.3
2022-11-16T04:48:04.407Z,1002.3
2022-11-16T04:49:38.000Z,1002.3
2022-11-16T04:50:54.912Z,1002.2
2022-11-16T04:52:11.163Z,1002.3
2022-11-16T04:53:27.600Z,1002.3
2022-11-16T04:54:38.000Z,1002.2
2022-11-16T04:55:58.000Z,1002.2
2022-11-16T04:57:15.000Z,1002.3
2022-11-16T04:58:31.000Z,1002.3
2022-11-16T04:59:29.730Z,1002.3
2022-11-16T05:01:03.000Z,1002.3
2022-11-16T05:02:20.235Z,1002.2
2022-11-16T05:03:36.000Z,1002.2
2022-11-16T05:04:52.000Z,1002.3
2022-11-16T05:06:08.000Z,1002.2
2022-11-16T05:07:07.242Z,1002.2
2022-11-16T05:08:41.495Z,1002.2
2022-11-16T05:09:57.747Z,1002.2
2022-11-16T05:11:13.998Z,1002.2
2022-11-16T05:12:30.000Z,1002.2
2022-11-16T05:13:45.000Z,1002.2
2022-11-16T05:14:43.809Z,1002.2
2022-11-16T05:16:18.000Z,1002.2
2022-11-16T05:17:34.000Z,1002.2
2022-11-16T05:18:32.565Z,1002.3
2022-11-16T05:20:06.000Z,1002.2
2022-11-16T05:21:17.000Z,1002.2
2022-11-16T05:22:21.321Z,1002.3
2022-11-16T05:23:55.000Z,1002.2
2022-11-16T05:25:11.000Z,1002.2
2022-11-16T05:26:10.077Z,1002.2
2022-11-16T05:27:44.329Z,1002.2
2022-11-16T05:29:00.000Z,1002.3
2022-11-16T05:30:16.834Z,1002.2
2022-11-16T05:31:33.086Z,1002.2
2022-11-16T05:32:49.000Z,1002.3
2022-11-16T05:33:47.590Z,1002.3
2022-11-16T05:35:21.842Z,1002.3
2022-11-16T05:36:38.094Z,1002.3
2022-11-16T05:37:54.000Z,1002.4
2022-11-16T05:39:10.000Z,1002.3
2022-11-16T05:40:26.000Z,1002.4
2022-11-16T05:41:24.157Z,1002.3
2022-11-16T05:42:58.409Z,1002.4
2022-11-16T05:44:14.000Z,1002.4
2022-11-16T05:45:12.912Z,1002.4
2022-11-16T05:46:47.165Z,1002.5
2022-11-16T05:48:03.417Z,1002.4
2022-11-16T05:49:19.668Z,1002.5
2022-11-16T05:50:35.000Z,1002.5
2022-11-16T05:51:52.000Z,1002.5
2022-11-16T05:53:08.604Z,1002.4
2022-11-16T05:54:24.000Z,1002.5
2022-11-16T05:55:40.929Z,1002.5
2022-11-16T05:56:39.180Z,1002.5
2022-11-16T05:58:13.433Z,1002.5
2022-11-16T05:59:29.685Z,1002.5
2022-11-16T06:00:27.936Z,1002.5
2022-11-16T06:02:02.000Z,1002.5
2022-11-16T06:03:18.000Z,1002.5
2022-11-16T06:09:39.000Z,1002.5
2022-11-16T06:10:55.953Z,1002.6
2022-11-16T06:12:12.205Z,1002.5
2022-11-16T06:13:28.000Z,1002.6
2022-11-16T06:14:44.000Z,1002.6
2022-11-16T06:19:30.772Z,1002.6
2022-11-16T06:21:05.000Z,1002.6
2022-11-16T06:22:21.000Z,1002.6
2022-11-16T06:24:53.000Z,1002.6
2022-11-16T06:26:10.000Z,1002.5
2022-11-16T06:27:26.285Z,1002.6
2022-11-16T06:28:42.000Z,1002.6
2022-11-16T06:32:31.000Z,1002.6
2022-11-16T06:33:46.601Z,1002.6
2022-11-16T06:34:44.854Z,1002.7
2022-11-16T06:36:19.106Z,1002.6
2022-11-16T06:37:17.359Z,1002.6
2022-11-16T06:38:33.610Z,1002.7
2022-11-16T06:40:07.000Z,1002.7
2022-11-16T06:41:24.115Z,1002.7
2022-11-16T06:42:22.366Z,1002.7
2022-11-16T06:43:38.618Z,1002.6
2022-11-16T06:45:11.000Z,1002.7
2022-11-16T06:47:44.000Z,1002.8
2022-11-16T06:49:00.694Z,1002.6
2022-11-16T06:49:58.945Z,1002.7
2022-11-16T06:51:33.000Z,1002.6
2022-11-16T06:52:49.000Z,1002.7
2022-11-16T06:53:47.701Z,1002.7
2022-11-16T06:55:03.954Z,1002.6
2022-11-16T06:56:38.206Z,1002.7
2022-11-16T06:57:54.645Z,1002.6
2022-11-16T06:59:10.000Z,1002.7
2022-11-16T07:00:26.000Z,1002.7
2022-11-16T07:01:42.000Z,1002.7
2022-11-16T07:02:58.000Z,1002.7
2022-11-16T07:04:14.773Z,1002.7
2022-11-16T07:05:31.000Z,1002.7
2022-11-16T07:06:47.000Z,1002.7
2022-11-16T07:08:03.000Z,1002.7
2022-11-16T07:09:01.777Z,1002.7
2022-11-16T07:10:36.027Z,1002.7
2022-11-16T07:11:52.000Z,1002.8
2022-11-16T07:12:50.526Z,1002.8
2022-11-16T07:14:24.000Z,1002.9
2022-11-16T07:15:41.000Z,1002.8
2022-11-16T07:16:57.448Z,1002.9
2022-11-16T07:18:12.000Z,1002.7
2022-11-16T07:19:28.000Z,1002.7
2022-11-16T07:20:27.079Z,1002.7
2022-11-16T07:22:01.329Z,1002.7
2022-11-16T07:23:17.000Z,1002.8
2022-11-16T07:24:33.000Z,1002.7
2022-11-16T07:25:50.078Z,1002.8
2022-11-16T07:27:06.000Z,1002.8
2022-11-16T07:28:04.577Z,1002.8
2022-11-16T07:29:20.827Z,1002.8
2022-11-16T07:30:55.077Z,1002.7
2022-11-16T07:31:53.327Z,1002.8
2022-11-16T07:33:27.577Z,1002.6
2022-11-16T07:34:43.000Z,1002.7
2022-11-16T07:35:42.076Z,1002.8
2022-11-16T07:37:16.000Z,1002.7
2022-11-16T07:38:32.000Z,1002.7
2022-11-16T07:39:30.825Z,1002.8
2022-11-16T07:41:04.000Z,1002.8
2022-11-16T07:42:20.000Z,1002.8
2022-11-16T07:43:36.000Z,1002.8
2022-11-16T07:44:52.000Z,1002.8
2022-11-16T07:46:09.129Z,1002.8
2022-11-16T07:47:25.557Z,1002.8
2022-11-16T07:48:41.000Z,1002.8
2022-11-16T07:49:57.878Z,1002.8
2022-11-16T07:50:56.128Z,1002.8
2022-11-16T07:52:12.378Z,1002.8
2022-11-16T07:53:46.000Z,1002.9
2022-11-16T07:54:44.877Z,1002.9
2022-11-16T07:56:19.127Z,1002.8
2022-11-16T07:57:17.376Z,1002.8
2022-11-16T07:58:51.626Z,1002.8
2022-11-16T08:00:07.876Z,1002.9
2022-11-16T08:01:24.127Z,1003
2022-11-16T08:02:40.377Z,1002.9
2022-11-16T08:03:56.000Z,1002.9
2022-11-16T08:05:11.000Z,1002.9
2022-11-16T08:06:10.182Z,1002.9
2022-11-16T08:07:44.000Z,1002.9
2022-11-16T08:09:00.000Z,1002.9
2022-11-16T08:10:16.000Z,1002.9
2022-11-16T08:11:33.182Z,1002.8
2022-11-16T08:12:49.432Z,1002.9
2022-11-16T08:13:47.682Z,1002.8
2022-11-16T08:15:03.932Z,1003
2022-11-16T08:16:38.000Z,1002.8
2022-11-16T08:17:54.000Z,1002.9
2022-11-16T08:19:10.681Z,1002.9
2022-11-16T08:20:26.000Z,1002.8
2022-11-16T08:21:43.000Z,1002.9
2022-11-16T08:22:59.000Z,1002.9
2022-11-16T08:24:15.000Z,1002.9
2022-11-16T08:25:13.930Z,1002.8
2022-11-16T08:26:30.180Z,1002.8
2022-11-16T08:28:04.000Z,1002.8
2022-11-16T08:29:02.679Z,1002.8
2022-11-16T08:30:37.000Z,1002.9
2022-11-16T08:31:35.300Z,1002.8
2022-11-16T08:32:51.550Z,1002.8
2022-11-16T08:34:25.000Z,1002.8
2022-11-16T08:35:42.049Z,1002.7
2022-11-16T08:36:40.299Z,1002.7
2022-11-16T08:38:14.000Z,1002.7
2022-11-16T08:39:30.000Z,1002.7
2022-11-16T08:40:47.000Z,1002.6
2022-11-16T08:42:03.298Z,1002.6
2022-11-16T08:43:01.547Z,1002.6
2022-11-16T08:44:17.797Z,1002.6
2022-11-16T08:45:52.047Z,1002.6
2022-11-16T08:47:08.297Z,1002.5
2022-11-16T08:48:06.546Z,1002.6
2022-11-16T08:49:39.000Z,1002.6
2022-11-16T08:50:56.101Z,1002.6
2022-11-16T08:52:07.000Z,1002.6
2022-11-16T08:53:28.601Z,1002.6
2022-11-16T08:54:44.000Z,1002.5
2022-11-16T08:55:43.100Z,1002.6
2022-11-16T08:57:17.350Z,1002.5
2022-11-16T08:58:33.000Z,1002.5
2022-11-16T08:59:49.849Z,1002.4
2022-11-16T09:01:06.000Z,1002.4
2022-11-16T09:02:22.349Z,1002.5
2022-11-16T09:03:33.000Z,1002.5
2022-11-16T09:04:54.848Z,1002.4
2022-11-16T09:06:11.099Z,1002.4
2022-11-16T09:07:08.404Z,1002.4
2022-11-16T09:08:42.000Z,1002.4
2022-11-16T09:09:59.090Z,1002.4
2022-11-16T09:10:57.153Z,1002.3
2022-11-16T09:12:31.000Z,1002.4
2022-11-16T09:13:47.000Z,1002.4
2022-11-16T09:15:04.081Z,1002.4
2022-11-16T09:16:20.000Z,1002.4
2022-11-16T09:17:36.579Z,1002.4
2022-11-16T09:18:52.000Z,1002.4
2022-11-16T09:20:08.903Z,1002.4
2022-11-16T09:21:25.152Z,1002.3
2022-11-16T09:22:23.402Z,1002.3
2022-11-16T09:23:38.707Z,1002.4
2022-11-16T09:25:12.957Z,1002.4
2022-11-16T09:26:29.384Z,1002.3
2022-11-16T09:27:45.457Z,1002.3
2022-11-16T09:29:01.000Z,1002.2
2022-11-16T09:30:18.136Z,1002.3
2022-11-16T09:31:34.000Z,1002.3
2022-11-16T09:32:50.000Z,1002.2
2022-11-16T09:34:06.000Z,1002.2
2022-11-16T09:35:22.000Z,1002.1
2022-11-16T09:36:39.000Z,1002.2
2022-11-16T09:37:55.456Z,1002.1
2022-11-16T09:39:11.000Z,1002.1
2022-11-16T09:40:27.000Z,1002.2
2022-11-16T09:41:25.260Z,1002.1
2022-11-16T09:42:59.510Z,1002.1
2022-11-16T09:44:15.760Z,1002.2
2022-11-16T09:45:14.010Z,1002.1
2022-11-16T09:46:48.452Z,1002.2
2022-11-16T09:48:04.700Z,1002.1
2022-11-16T09:49:02.759Z,1002.1
2022-11-16T09:50:37.009Z,1002.2
2022-11-16T09:51:53.000Z,1002.2
2022-11-16T09:52:51.509Z,1002.2
2022-11-16T09:54:25.000Z,1002.1
2022-11-16T09:55:42.000Z,1002.2
2022-11-16T09:56:58.258Z,1002.2
2022-11-16T09:58:14.000Z,1002.2
2022-11-16T09:59:29.000Z,1002.1
2022-11-16T10:00:46.243Z,1002.1
2022-11-16T10:02:02.492Z,1002.1
2022-11-16T10:03:18.563Z,1002.1
2022-11-16T10:04:16.812Z,1002.1
2022-11-16T10:05:51.000Z,1002.1
2022-11-16T10:07:07.493Z,1002.1
2022-11-16T10:08:05.562Z,1002.1
2022-11-16T10:09:39.000Z,1002.1
2022-11-16T10:10:56.000Z,1002
2022-11-16T10:11:54.311Z,1002
2022-11-16T10:13:28.000Z,1002
2022-11-16T10:14:45.005Z,1002.1
2022-11-16T10:16:00.000Z,1002
2022-11-16T10:17:16.358Z,1002.1
2022-11-16T10:18:32.608Z,1002
2022-11-16T10:19:30.857Z,1002.1
2022-11-16T10:21:05.000Z,1002
2022-11-16T10:22:21.357Z,1002.1
2022-11-16T10:23:37.000Z,1001.9
2022-11-16T10:24:53.857Z,1002
2022-11-16T10:26:10.106Z,1002
2022-11-16T10:27:08.356Z,1002
2022-11-16T10:28:42.606Z,1002
2022-11-16T10:29:40.856Z,1001.9
2022-11-16T10:30:57.106Z,1001.8
2022-11-16T10:32:30.000Z,1001.8
2022-11-16T10:33:46.000Z,1001.8
2022-11-16T10:35:02.910Z,1001.7
2022-11-16T10:36:19.160Z,1001.8
2022-11-16T10:37:17.410Z,1001.7
2022-11-16T10:38:33.659Z,1001.7
2022-11-16T10:40:07.909Z,1001.8
2022-11-16T10:41:24.159Z,1001.8
2022-11-16T10:42:22.409Z,1001.7
2022-11-16T10:43:56.000Z,1001.7
2022-11-16T10:45:12.000Z,1001.7
2022-11-16T10:46:11.159Z,1001.7
2022-11-16T10:47:45.409Z,1001.7
2022-11-16T10:49:01.000Z,1001.7
2022-11-16T10:49:59.908Z,1001.7
2022-11-16T10:51:34.000Z,1001.7
2022-11-16T10:52:50.000Z,1001.7
2022-11-16T10:54:06.657Z,1001.8
2022-11-16T10:55:22.000Z,1001.8
2022-11-16T10:56:39.157Z,1001.7
2022-11-16T10:57:37.407Z,1001.8
2022-11-16T10:59:11.849Z,1001.7
2022-11-16T11:00:26.000Z,1001.8
2022-11-16T11:01:25.225Z,1001.9
2022-11-16T11:02:59.475Z,1001.8
2022-11-16T11:04:15.915Z,1001.8
2022-11-16T11:05:31.000Z,1001.6
2022-11-16T11:06:48.000Z,1001.8
2022-11-16T11:08:04.474Z,1001.8
2022-11-16T11:09:20.910Z,1001.8
2022-11-16T11:10:36.974Z,1001.7
2022-11-16T11:11:53.223Z,1001.7
2022-11-16T11:13:09.473Z,1001.7
2022-11-16T11:14:25.000Z,1001.6
2022-11-16T11:15:42.156Z,1001.6
2022-11-16T11:16:58.344Z,1001.7
2022-11-16T11:18:14.787Z,1001.7
2022-11-16T11:19:30.844Z,1001.7
2022-11-16T11:20:47.283Z,1001.7
2022-11-16T11:22:03.527Z,1001.6
2022-11-16T11:23:19.000Z,1001.7
2022-11-16T11:24:17.844Z,1001.8
2022-11-16T11:25:52.000Z,1001.8
2022-11-16T11:27:08.000Z,1001.8
2022-11-16T11:28:24.593Z,1001.7
2022-11-16T11:29:40.843Z,1001.8
2022-11-16T11:30:57.000Z,1001.7
2022-11-16T11:32:13.342Z,1001.7
2022-11-16T11:33:29.780Z,1001.7
2022-11-16T11:34:45.000Z,1001.7
2022-11-16T11:35:44.092Z,1001.7
2022-11-16T11:37:18.342Z,1001.7
2022-11-16T11:38:34.781Z,1001.8
2022-11-16T11:39:32.842Z,1001.8
2022-11-16T11:41:06.000Z,1001.7
2022-11-16T11:42:22.000Z,1001.8
2022-11-16T11:43:20.647Z,1001.8
2022-11-16T11:44:54.000Z,1001.8
2022-11-16T11:46:11.147Z,1001.7
2022-11-16T11:47:09.397Z,1001.8
2022-11-16T11:48:43.000Z,1001.8
2022-11-16T11:49:59.897Z,1001.8
2022-11-16T11:51:16.147Z,1001.8
2022-11-16T11:52:32.397Z,1001.9
2022-11-16T11:53:48.000Z,1001.9
2022-11-16T11:55:05.080Z,1001.8
2022-11-16T11:56:21.000Z,1001.8
2022-11-16T11:57:37.000Z,1001.9
2022-11-16T11:58:34.701Z,1001.7
2022-11-16T12:00:08.951Z,1001.7
2022-11-16T12:01:25.202Z,1001.7
2022-11-16T12:02:23.451Z,1001.8
2022-11-16T12:03:39.701Z,1001.8
2022-11-16T12:05:13.951Z,1001.7
2022-11-16T12:06:12.201Z,1001.7
2022-11-16T12:07:46.638Z,1001.7
2022-11-16T12:09:02.000Z,1001.7
2022-11-16T12:10:18.000Z,1001.7
2022-11-16T12:11:35.200Z,1001.8
2022-11-16T12:12:51.642Z,1001.8
2022-11-16T12:13:49.699Z,1001.8
2022-11-16T12:15:23.000Z,1001.8
2022-11-16T12:16:39.000Z,1001.8
2022-11-16T12:17:37.504Z,1001.8
2022-11-16T12:19:11.000Z,1001.8
2022-11-16T12:20:22.000Z,1001.8
2022-11-16T12:21:26.253Z,1001.8
2022-11-16T12:23:00.000Z,1001.8
2022-11-16T12:24:16.000Z,1001.8
2022-11-16T12:25:15.002Z,1001.9
2022-11-16T12:26:49.252Z,1001.9
2022-11-16T12:28:05.000Z,1001.8
2022-11-16T12:29:21.751Z,1001.8
2022-11-16T12:30:38.188Z,1001.8
2022-11-16T12:31:36.251Z,1001.8
2022-11-16T12:32:51.555Z,1001.8
2022-11-16T12:34:25.000Z,1001.8
2022-11-16T12:35:42.055Z,1001.8
2022-11-16T12:36:40.305Z,1001.8
2022-11-16T12:38:14.000Z,1001.8
2022-11-16T12:39:30.000Z,1001.7
2022-11-16T12:40:29.054Z,1001.7
2022-11-16T12:42:03.304Z,1001.7
2022-11-16T12:43:19.000Z,1001.8
2022-11-16T12:44:35.987Z,1001.7
2022-11-16T12:45:52.000Z,1001.7
2022-11-16T12:47:08.000Z,1001.7
2022-11-16T12:48:24.000Z,1001.7
2022-11-16T12:49:40.802Z,1001.8
2022-11-16T12:50:57.000Z,1001.7
2022-11-16T12:51:55.301Z,1001.7
2022-11-16T12:53:28.606Z,1001.7
2022-11-16T12:54:44.000Z,1001.8
2022-11-16T12:55:43.106Z,1001.8
2022-11-16T12:57:17.000Z,1001.7
2022-11-16T12:58:33.605Z,1001.8
2022-11-16T12:59:49.855Z,1001.7
2022-11-16T13:01:06.105Z,1001.7
2022-11-16T13:02:22.354Z,1001.8
2022-11-16T13:03:20.604Z,1001.8
2022-11-16T13:04:54.854Z,1001.9
2022-11-16T13:05:53.105Z,1001.7
2022-11-16T13:07:27.000Z,1001.8
2022-11-16T13:08:43.000Z,1001.8
2022-11-16T13:10:00.053Z,1001.7
2022-11-16T13:10:58.104Z,1001.7
2022-11-16T13:12:31.589Z,1001.7
2022-11-16T13:13:47.000Z,1001.7
2022-11-16T13:14:45.901Z,1001.7
2022-11-16T13:16:20.341Z,1001.6
2022-11-16T13:17:36.000Z,1001.6
2022-11-16T13:18:52.651Z,1001.8
2022-11-16T13:20:08.000Z,1001.8
2022-11-16T13:21:25.151Z,1001.7
2022-11-16T13:22:41.000Z,1001.7
2022-11-16T13:23:57.000Z,1001.7
2022-11-16T13:25:13.900Z,1001.7
2022-11-16T13:26:30.150Z,1001.6
2022-11-16T13:27:46.585Z,1001.6
2022-11-16T13:29:02.000Z,1001.6
2022-11-16T13:30:18.000Z,1001.5
2022-11-16T13:31:34.000Z,1001.5
2022-11-16T13:32:50.454Z,1001.5
2022-11-16T13:33:48.704Z,1001.5
2022-11-16T13:35:04.954Z,1001.5
2022-11-16T13:36:39.000Z,1001.5
2022-11-16T13:37:37.453Z,1001.5
2022-11-16T13:39:11.703Z,1001.5
2022-11-16T13:40:09.953Z,1001.5
2022-11-16T13:41:26.203Z,1001.6
2022-11-16T13:43:00.000Z,1001.5
2022-11-16T13:44:16.702Z,1001.5
2022-11-16T13:45:32.952Z,1001.5
2022-11-16T13:46:31.202Z,1001.5
2022-11-16T13:48:04.000Z,1001.5
2022-11-16T13:49:20.000Z,1001.5
2022-11-16T13:50:37.204Z,1001.6
2022-11-16T13:51:53.000Z,1001.5
2022-11-16T13:53:09.690Z,1001.5
2022-11-16T13:54:25.000Z,1001.5
2022-11-16T13:55:42.000Z,1001.5
2022-11-16T13:56:40.256Z,1001.5
2022-11-16T13:58:14.506Z,1001.5
2022-11-16T13:59:30.756Z,1001.5
2022-11-16T14:00:29.005Z,1001.5
2022-11-16T14:01:58.000Z,1001.5
2022-11-16T14:03:19.000Z,1001.6
2022-11-16T14:04:34.810Z,1001.5
2022-11-16T14:05:51.000Z,1001.5
2022-11-16T14:07:07.000Z,1001.5
2022-11-16T14:08:05.560Z,1001.5
2022-11-16T14:09:39.810Z,1001.5
2022-11-16T14:10:56.059Z,1001.5
2022-11-16T14:12:12.000Z,1001.5
2022-11-16T14:13:28.000Z,1001.5
2022-11-16T14:14:26.809Z,1001.5
2022-11-16T14:15:43.059Z,1001.5
2022-11-16T14:17:17.000Z,1001.5
2022-11-16T14:18:33.746Z,1001.5
2022-11-16T14:19:49.000Z,1001.5
2022-11-16T14:21:05.113Z,1001.5
2022-11-16T14:22:21.363Z,1001.5
2022-11-16T14:23:37.613Z,1001.4
2022-11-16T14:24:35.863Z,1001.5
2022-11-16T14:26:10.112Z,1001.5
2022-11-16T14:27:08.362Z,1001.5
2022-11-16T14:28:42.612Z,1001.5
2022-11-16T14:29:58.861Z,1001.5
2022-11-16T14:30:57.111Z,1001.5
2022-11-16T14:32:31.361Z,1001.5
2022-11-16T14:33:47.612Z,1001.5
2022-11-16T14:35:04.046Z,1001.5
2022-11-16T14:36:14.000Z,1001.5
2022-11-16T14:37:36.000Z,1001.5
2022-11-16T14:38:33.665Z,1001.5
2022-11-16T14:40:07.000Z,1001.4
2022-11-16T14:41:24.165Z,1001.5
2022-11-16T14:42:40.415Z,1001.5
2022-11-16T14:43:56.000Z,1001.4
2022-11-16T14:45:12.915Z,1001.4
2022-11-16T14:46:29.355Z,1001.4
2022-11-16T14:47:45.415Z,1001.5
2022-11-16T14:49:01.000Z,1001.5
2022-11-16T14:50:18.098Z,1001.5
2022-11-16T14:51:34.164Z,1001.4
2022-11-16T14:52:50.000Z,1001.4
2022-11-16T14:53:48.663Z,1001.4
2022-11-16T14:55:21.000Z,1001.4
2022-11-16T14:56:38.218Z,1001.4
2022-11-16T14:57:36.468Z,1001.4
2022-11-16T14:59:10.718Z,1001.4
2022-11-16T15:00:26.967Z,1001.4
2022-11-16T15:01:43.000Z,1001.4
2022-11-16T15:02:59.000Z,1001.4
2022-11-16T15:04:15.717Z,1001.4
2022-11-16T15:05:13.966Z,1001.3
2022-11-16T15:06:48.000Z,1001.4
2022-11-16T15:08:04.466Z,1001.3
2022-11-16T15:09:02.716Z,1001.3
2022-11-16T15:10:18.966Z,1001.4
2022-11-16T15:11:35.215Z,1001.4
2022-11-16T15:12:50.520Z,1001.3
2022-11-16T15:14:24.771Z,1001.4
2022-11-16T15:15:41.020Z,1001.4
2022-11-16T15:16:39.270Z,1001.4
2022-11-16T15:18:12.000Z,1001.3
2022-11-16T15:19:28.836Z,1001.4
2022-11-16T15:20:45.000Z,1001.3
2022-11-16T15:22:01.335Z,1001.3
2022-11-16T15:23:17.000Z,1001.3
2022-11-16T15:24:15.835Z,1001.4
2022-11-16T15:25:50.085Z,1001.3
2022-11-16T15:27:06.334Z,1001.4
2022-11-16T15:28:04.584Z,1001.4
2022-11-16T15:29:38.000Z,1001.4
2022-11-16T15:30:55.000Z,1001.3
2022-11-16T15:31:53.333Z,1001.5
2022-11-16T15:33:27.000Z,1001.3
2022-11-16T15:34:42.889Z,1001.3
2022-11-16T15:35:59.138Z,1001.3
2022-11-16T15:37:15.000Z,1001.3
2022-11-16T15:38:31.631Z,1001.3
2022-11-16T15:39:47.000Z,1001.3
2022-11-16T15:41:04.138Z,1001.2
2022-11-16T15:42:20.000Z,1001.3
2022-11-16T15:43:18.637Z,1001.3
2022-11-16T15:44:52.887Z,1001.3
2022-11-16T15:45:51.137Z,1001.3
2022-11-16T15:47:07.386Z,1001.2
2022-11-16T15:48:41.000Z,1001.2
2022-11-16T15:49:57.886Z,1001.2
2022-11-16T15:51:14.136Z,1001.2
2022-11-16T15:52:29.441Z,1001.2
2022-11-16T15:53:45.690Z,1001.2
2022-11-16T15:55:01.940Z,1001.2
2022-11-16T15:56:18.190Z,1001.3
2022-11-16T15:57:34.439Z,1001.2
2022-11-16T15:58:50.689Z,1001.2
2022-11-16T16:00:06.000Z,1001.2
2022-11-16T16:01:23.188Z,1001.2
2022-11-16T16:02:39.434Z,1001.2
2022-11-16T16:03:55.688Z,1001.1
2022-11-16T16:05:11.000Z,1001.2
2022-11-16T16:06:10.188Z,1001.2